Terminal Aerodrome Forecast
Issued by NWS

Home | Current Version | Previous Version | Text Only | Print | Product List | Glossary On
Versions: 1 2 3 4 5 6 7 8 9 10 11 12 13 14 15 16 17 18 19 20 21 22 23 24 25 26 27 28
000
FTUS45 KTWC 050520
TAFOLS
TAF
KOLS 050520Z 0506/0606 09007KT P6SM SCT080 OVC200
     FM051300 VRB04KT P6SM SCT080 OVC150
     FM051900 25008KT P6SM VCSH SCT060 OVC120
     FM060300 VRB04KT P6SM SCT080 BKN200=

USA.gov is the U.S. government's official web portal to all federal, state and local government web resources and services.